createdAt,value
2023-05-14T00:01:44.063Z,16.10
2023-05-14T00:04:32.569Z,16.10
2023-05-14T00:07:21.043Z,16.10
2023-05-14T00:10:10.210Z,13.90
2023-05-14T00:12:58.601Z,15.60
2023-05-14T00:15:48.495Z,15.80
2023-05-14T00:18:37.127Z,15.90
2023-05-14T00:21:25.630Z,16.00
2023-05-14T00:24:14.133Z,15.70
2023-05-14T00:27:02.713Z,15.80
2023-05-14T00:29:51.139Z,15.90
2023-05-14T00:32:41.030Z,15.90
2023-05-14T00:35:29.546Z,15.70
2023-05-14T00:38:19.461Z,15.60
2023-05-14T00:41:08.100Z,15.60
2023-05-14T00:43:56.445Z,15.80
2023-05-14T00:46:45.107Z,15.80
2023-05-14T00:49:35.933Z,15.90
2023-05-14T00:52:24.473Z,16.30
2023-05-14T00:55:16.411Z,16.00
2023-05-14T00:58:08.381Z,16.00
2023-05-14T01:00:57.175Z,16.00
2023-05-14T01:03:46.192Z,16.10
2023-05-14T01:06:42.570Z,16.00
2023-05-14T01:09:37.585Z,16.10
2023-05-14T01:12:34.550Z,16.20
2023-05-14T01:15:26.314Z,16.10
2023-05-14T01:18:18.889Z,16.10
2023-05-14T01:21:19.257Z,16.20
2023-05-14T01:24:09.826Z,16.30
2023-05-14T01:27:02.988Z,16.20
2023-05-14T01:29:58.974Z,16.30
2023-05-14T01:32:52.177Z,16.10
2023-05-14T01:35:41.643Z,16.00
2023-05-14T01:38:33.952Z,15.90
2023-05-14T01:41:26.333Z,16.10
2023-05-14T01:44:15.264Z,16.10
2023-05-14T01:47:03.734Z,16.10
2023-05-14T01:49:52.489Z,16.20
2023-05-14T01:52:40.937Z,16.20
2023-05-14T01:55:29.328Z,16.20
2023-05-14T01:58:19.883Z,16.20
2023-05-14T02:01:08.273Z,16.20
2023-05-14T02:03:57.190Z,16.00
2023-05-14T02:06:45.694Z,16.00
2023-05-14T02:09:34.106Z,15.80
2023-05-14T02:12:22.534Z,15.60
2023-05-14T02:15:13.039Z,15.50
2023-05-14T02:18:01.464Z,15.50
2023-05-14T02:20:49.938Z,15.70
2023-05-14T02:23:41.981Z,15.70
2023-05-14T02:29:19.588Z,15.10
2023-05-14T02:32:09.539Z,15.30
2023-05-14T02:34:58.010Z,15.50
2023-05-14T02:37:46.470Z,15.40
2023-05-14T02:40:34.952Z,15.40
2023-05-14T02:43:23.391Z,15.50
2023-05-14T02:46:11.846Z,15.60
2023-05-14T02:49:02.907Z,15.40
2023-05-14T02:51:51.516Z,15.60
2023-05-14T02:54:39.978Z,15.60
2023-05-14T02:57:28.354Z,15.70
2023-05-14T03:00:17.142Z,15.70
2023-05-14T03:03:05.816Z,15.60
2023-05-14T03:05:56.296Z,15.50
2023-05-14T03:08:44.777Z,15.30
2023-05-14T03:11:33.304Z,15.20
2023-05-14T03:14:21.718Z,15.30
2023-05-14T03:17:10.546Z,15.40
2023-05-14T03:19:59.069Z,15.50
2023-05-14T03:22:48.943Z,14.70
2023-05-14T03:25:37.465Z,15.20
2023-05-14T03:28:26.060Z,15.20
2023-05-14T03:31:14.798Z,15.30
2023-05-14T03:34:03.729Z,15.40
2023-05-14T03:36:52.807Z,15.40
2023-05-14T03:39:42.697Z,15.50
2023-05-14T03:42:31.203Z,15.50
2023-05-14T03:45:19.696Z,15.60
2023-05-14T03:48:08.369Z,15.70
2023-05-14T03:50:56.926Z,15.80
2023-05-14T03:53:45.487Z,15.90
2023-05-14T03:56:35.314Z,15.90
2023-05-14T03:59:23.701Z,16.00
2023-05-14T04:02:12.250Z,15.90
2023-05-14T04:05:00.764Z,15.90
2023-05-14T04:07:49.274Z,15.90
2023-05-14T04:10:37.863Z,15.90
2023-05-14T04:13:27.727Z,16.00
2023-05-14T04:16:16.170Z,15.90
2023-05-14T04:19:05.789Z,15.90
2023-05-14T04:21:54.224Z,15.90
2023-05-14T04:24:42.670Z,16.00
2023-05-14T04:27:31.290Z,15.90
2023-05-14T04:30:21.370Z,16.00
2023-05-14T04:33:10.371Z,15.70
2023-05-14T04:35:58.895Z,15.60
2023-05-14T04:38:47.335Z,15.60
2023-05-14T04:41:36.740Z,15.60
2023-05-14T04:44:25.164Z,15.70
2023-05-14T04:47:15.223Z,15.70
2023-05-14T04:50:04.262Z,15.70
2023-05-14T04:52:52.869Z,15.80
2023-05-14T04:55:41.384Z,15.70
2023-05-14T04:58:33.799Z,15.80
2023-05-14T05:01:23.523Z,15.80
2023-05-14T05:04:13.592Z,15.80
2023-05-14T05:07:02.037Z,15.80
2023-05-14T05:09:50.630Z,15.90
2023-05-14T05:12:39.081Z,15.90
2023-05-14T05:15:27.470Z,15.90
2023-05-14T05:18:15.995Z,15.90
2023-05-14T05:21:05.868Z,16.00
2023-05-14T05:23:54.299Z,15.90
2023-05-14T05:26:42.719Z,15.90
2023-05-14T05:29:31.223Z,15.90
2023-05-14T05:32:19.840Z,15.80
2023-05-14T05:35:08.872Z,15.90
2023-05-14T05:38:01.309Z,15.80
2023-05-14T05:40:50.332Z,15.90
2023-05-14T05:43:38.759Z,15.90
2023-05-14T05:46:27.353Z,15.90
2023-05-14T05:49:15.854Z,15.90
2023-05-14T05:52:04.448Z,15.90
2023-05-14T05:54:54.332Z,15.80
2023-05-14T05:57:42.792Z,15.80
2023-05-14T06:00:31.242Z,15.80
2023-05-14T06:03:19.798Z,15.80
2023-05-14T06:06:08.661Z,15.80
2023-05-14T06:08:57.093Z,15.80
2023-05-14T06:11:46.968Z,15.80
2023-05-14T06:14:35.404Z,15.80
2023-05-14T06:17:23.918Z,15.90
2023-05-14T06:20:13.180Z,15.90
2023-05-14T06:23:01.704Z,15.90
2023-05-14T06:25:51.283Z,15.80
2023-05-14T06:28:41.180Z,15.70
2023-05-14T06:31:29.675Z,15.70
2023-05-14T06:34:18.207Z,15.70
2023-05-14T06:37:07.093Z,15.70
2023-05-14T06:39:57.646Z,15.70
2023-05-14T06:42:46.265Z,15.80
2023-05-14T06:45:36.174Z,15.70
2023-05-14T06:48:24.672Z,15.70
2023-05-14T06:51:13.376Z,15.70
2023-05-14T06:54:01.842Z,15.70
2023-05-14T06:56:50.318Z,15.70
2023-05-14T06:59:38.798Z,15.80
2023-05-14T07:02:28.686Z,15.90
2023-05-14T07:05:17.366Z,15.80
2023-05-14T07:08:06.165Z,15.60
2023-05-14T07:10:54.608Z,15.50
2023-05-14T07:13:43.947Z,15.40
2023-05-14T07:16:32.404Z,15.50
2023-05-14T07:19:22.369Z,15.60
2023-05-14T07:22:10.846Z,15.70
2023-05-14T07:24:59.284Z,15.60
2023-05-14T07:27:47.744Z,17.40
2023-05-14T07:30:36.183Z,15.90
2023-05-14T07:33:25.464Z,15.80
2023-05-14T07:36:15.630Z,15.90
2023-05-14T07:39:04.244Z,15.90
2023-05-14T07:41:54.765Z,15.70
2023-05-14T07:44:43.501Z,15.80
2023-05-14T07:47:32.324Z,15.80
2023-05-14T07:50:21.133Z,15.90
2023-05-14T07:53:11.083Z,16.00
2023-05-14T07:56:00.113Z,16.10
2023-05-14T07:58:48.666Z,14.50
2023-05-14T08:01:39.361Z,16.20
2023-05-14T08:04:28.250Z,16.30
2023-05-14T08:07:17.287Z,16.20
2023-05-14T08:10:08.283Z,16.20
2023-05-14T08:12:56.724Z,16.20
2023-05-14T08:15:45.141Z,16.20
2023-05-14T08:18:34.654Z,16.20
2023-05-14T08:21:23.241Z,16.20
2023-05-14T08:24:11.710Z,16.30
2023-05-14T08:27:02.384Z,16.50
2023-05-14T08:29:51.457Z,16.60
2023-05-14T08:32:39.894Z,16.60
2023-05-14T08:35:28.458Z,16.60
2023-05-14T08:38:16.897Z,16.50
2023-05-14T08:41:07.460Z,16.40
2023-05-14T08:44:07.883Z,16.40
2023-05-14T08:46:56.571Z,16.50
2023-05-14T08:49:48.093Z,16.50
2023-05-14T08:52:37.123Z,16.50
2023-05-14T08:55:26.174Z,16.60
2023-05-14T08:58:14.681Z,16.60
2023-05-14T09:01:05.014Z,16.60
2023-05-14T09:03:55.087Z,16.60
2023-05-14T09:06:45.130Z,16.60
2023-05-14T09:09:33.731Z,16.60
2023-05-14T09:12:22.972Z,16.60
2023-05-14T09:15:12.014Z,16.50
2023-05-14T09:18:01.948Z,16.30
2023-05-14T09:20:52.069Z,16.30
2023-05-14T09:23:43.656Z,16.30
2023-05-14T09:26:33.890Z,16.30
2023-05-14T09:29:22.487Z,16.40
2023-05-14T09:32:10.997Z,16.40
2023-05-14T09:35:00.810Z,16.40
2023-05-14T09:37:51.684Z,16.40
2023-05-14T09:40:40.284Z,16.40
2023-05-14T09:43:28.770Z,16.40
2023-05-14T09:46:17.563Z,16.40
2023-05-14T09:49:05.996Z,16.40
2023-05-14T09:51:57.924Z,16.50
2023-05-14T09:54:47.951Z,16.50
2023-05-14T09:57:36.676Z,16.50
2023-05-14T10:00:25.428Z,16.50
2023-05-14T10:03:17.993Z,16.60
2023-05-14T10:06:10.564Z,16.60
2023-05-14T10:09:04.087Z,16.50
2023-05-14T10:11:57.199Z,16.50
2023-05-14T10:14:53.269Z,16.60
2023-05-14T10:17:45.725Z,16.60
2023-05-14T10:20:34.632Z,16.70
2023-05-14T10:23:23.324Z,16.80
2023-05-14T10:26:13.639Z,16.80
2023-05-14T10:29:02.130Z,16.80
2023-05-14T10:31:53.776Z,16.80
2023-05-14T10:34:44.202Z,16.90
2023-05-14T10:37:33.869Z,17.00
2023-05-14T10:40:26.064Z,17.10
2023-05-14T10:43:17.183Z,17.20
2023-05-14T10:46:06.106Z,17.30
2023-05-14T10:48:54.539Z,17.40
2023-05-14T10:51:42.988Z,17.40
2023-05-14T10:54:31.545Z,17.40
2023-05-14T10:57:20.825Z,17.50
2023-05-14T11:00:14.149Z,17.60
2023-05-14T11:03:06.648Z,17.60
2023-05-14T11:05:56.540Z,17.60
2023-05-14T11:08:46.584Z,17.50
2023-05-14T11:11:36.289Z,17.40
2023-05-14T11:14:24.911Z,17.40
2023-05-14T11:17:14.877Z,17.60
2023-05-14T11:20:05.476Z,17.70
2023-05-14T11:22:54.382Z,17.70
2023-05-14T11:25:43.743Z,17.80
2023-05-14T11:28:32.269Z,17.80
2023-05-14T11:31:24.244Z,17.80
2023-05-14T11:34:14.180Z,17.70
2023-05-14T11:37:05.433Z,17.70
2023-05-14T11:39:55.382Z,17.80
2023-05-14T11:42:43.898Z,17.90
2023-05-14T11:48:22.309Z,18.00
2023-05-14T11:51:12.128Z,18.10
2023-05-14T11:54:00.641Z,18.00
2023-05-14T11:56:52.373Z,18.00
2023-05-14T11:59:41.370Z,18.00
2023-05-14T12:02:30.387Z,18.00
2023-05-14T12:05:19.576Z,18.10
2023-05-14T12:11:11.259Z,18.10
2023-05-14T12:14:00.588Z,18.20
2023-05-14T12:16:50.351Z,18.20
2023-05-14T12:22:31.244Z,18.30
2023-05-14T12:25:21.154Z,18.50
2023-05-14T13:16:16.853Z,19.30
2023-05-14T13:19:05.483Z,19.30
2023-05-14T13:21:53.885Z,19.50
2023-05-14T13:24:42.305Z,19.70
2023-05-14T13:27:30.923Z,20.00
2023-05-14T13:30:19.508Z,20.10
2023-05-14T13:33:09.379Z,20.20
2023-05-14T13:35:57.868Z,20.20
2023-05-14T13:38:46.964Z,20.10
2023-05-14T13:44:24.584Z,19.30
2023-05-14T18:23:44.415Z,18.10
2023-05-14T18:26:34.352Z,18.10
2023-05-14T18:29:22.948Z,17.90
2023-05-14T18:32:11.381Z,17.80
2023-05-14T18:34:59.820Z,18.00
2023-05-14T18:37:49.654Z,18.00
2023-05-14T18:40:38.261Z,17.90
2023-05-14T18:43:26.849Z,18.00
2023-05-14T18:46:15.400Z,18.00
2023-05-14T18:49:03.857Z,17.90
2023-05-14T18:51:52.370Z,17.90
2023-05-14T18:54:42.214Z,18.70
2023-05-14T18:57:32.684Z,17.90
2023-05-14T19:00:21.625Z,17.90
2023-05-14T19:03:10.200Z,17.80
2023-05-14T19:05:58.787Z,17.70
2023-05-14T19:08:47.285Z,17.70
2023-05-14T19:11:37.156Z,17.60
2023-05-14T19:14:25.690Z,17.60
2023-05-14T19:17:14.213Z,17.60
2023-05-14T19:20:04.229Z,17.60
2023-05-14T19:22:52.763Z,17.60
2023-05-14T19:25:41.438Z,17.50
2023-05-14T19:28:31.384Z,17.70
2023-05-14T19:31:19.876Z,17.50
2023-05-14T19:34:08.583Z,17.50
2023-05-14T19:36:57.189Z,17.50
2023-05-14T19:39:45.719Z,17.50
2023-05-14T19:42:34.285Z,17.30
2023-05-14T19:45:24.341Z,17.40
2023-05-14T19:48:14.306Z,17.40
2023-05-14T19:51:02.813Z,17.30
2023-05-14T19:53:51.441Z,17.30
2023-05-14T19:56:40.123Z,17.30
2023-05-14T19:59:29.813Z,17.30
2023-05-14T20:02:21.923Z,17.30
2023-05-14T20:05:10.903Z,17.30
2023-05-14T20:07:59.499Z,17.30
2023-05-14T20:10:47.939Z,17.30
2023-05-14T20:13:36.789Z,17.30
2023-05-14T20:16:25.367Z,17.30
2023-05-14T20:19:16.339Z,17.30
2023-05-14T20:22:05.095Z,17.40
2023-05-14T20:24:53.684Z,17.30
2023-05-14T20:27:42.339Z,17.30
2023-05-14T20:30:31.136Z,17.30
2023-05-14T20:33:19.599Z,17.30
2023-05-14T20:36:09.948Z,17.30
2023-05-14T20:39:00.433Z,17.30
2023-05-14T20:41:48.888Z,17.30
2023-05-14T20:44:37.297Z,17.70
2023-05-14T20:47:28.068Z,17.20
2023-05-14T20:50:16.630Z,17.20
2023-05-14T20:53:06.649Z,17.20
2023-05-14T20:55:55.116Z,17.20
2023-05-14T20:58:43.552Z,17.20
2023-05-14T21:01:32.086Z,17.20
2023-05-14T21:04:20.646Z,17.10
2023-05-14T21:07:09.377Z,17.10
2023-05-14T21:09:59.190Z,17.20
2023-05-14T21:12:47.603Z,17.20
2023-05-14T21:15:36.074Z,17.20
2023-05-14T21:18:26.651Z,17.20
2023-05-14T21:21:15.188Z,17.10
2023-05-14T21:24:03.712Z,17.10
2023-05-14T21:26:53.731Z,17.10
2023-05-14T21:29:42.355Z,17.00
2023-05-14T21:32:30.969Z,17.00
2023-05-14T21:35:19.392Z,16.90
2023-05-14T21:38:08.894Z,16.90
2023-05-14T21:40:57.381Z,17.00
2023-05-14T21:43:47.187Z,16.90
2023-05-14T21:46:35.955Z,16.90
2023-05-14T21:49:24.476Z,17.00
2023-05-14T21:52:13.244Z,16.80
2023-05-14T21:55:01.697Z,16.60
2023-05-14T21:57:50.220Z,16.60
2023-05-14T22:00:40.375Z,16.70
2023-05-14T22:03:29.330Z,16.80
2023-05-14T22:06:17.741Z,16.90
2023-05-14T22:09:06.240Z,16.90
2023-05-14T22:11:54.627Z,17.00
2023-05-14T22:14:43.052Z,17.00
2023-05-14T22:17:34.320Z,17.00
2023-05-14T22:20:22.933Z,17.10
2023-05-14T22:23:11.385Z,17.10
2023-05-14T22:25:59.952Z,17.00
2023-05-14T22:28:49.601Z,17.00
2023-05-14T22:31:38.157Z,17.10
2023-05-14T22:34:28.059Z,17.00
2023-05-14T22:37:17.421Z,17.00
2023-05-14T22:40:07.380Z,17.10
2023-05-14T22:42:55.850Z,17.10
2023-05-14T22:45:44.840Z,17.10
2023-05-14T22:48:33.266Z,17.00
2023-05-14T22:51:23.079Z,17.00
2023-05-14T22:54:11.944Z,17.20
2023-05-14T22:57:00.378Z,17.00
2023-05-14T23:02:37.753Z,16.90
2023-05-14T23:05:26.421Z,16.90
2023-05-14T23:08:16.419Z,16.90
2023-05-14T23:11:04.904Z,16.90
2023-05-14T23:13:53.546Z,16.80
2023-05-14T23:16:42.170Z,16.70
2023-05-14T23:19:30.535Z,16.70
2023-05-14T23:25:10.348Z,16.70
2023-05-14T23:27:58.850Z,16.70
2023-05-14T23:30:47.280Z,16.70
2023-05-14T23:33:35.979Z,16.70
2023-05-14T23:36:24.662Z,16.60
2023-05-14T23:39:13.295Z,16.60
2023-05-14T23:42:03.139Z,16.60
2023-05-14T23:44:51.767Z,16.60
2023-05-14T23:47:40.464Z,16.50
2023-05-14T23:50:29.279Z,16.40
2023-05-14T23:53:17.779Z,16.40
2023-05-14T23:56:06.491Z,16.20
2023-05-14T23:58:56.792Z,16.50
